sensor_id;sensor_type;location;lat;lon;timestamp;P1;P2;P0
44350;PMS5003;62766;62.622;17.912;2022-12-18T00:00:26;28;24;
44350;PMS5003;62766;62.622;17.912;2022-12-18T00:02:55;19;19;
44350;PMS5003;62766;62.622;17.912;2022-12-18T00:05:24;22;18;
44350;PMS5003;62766;62.622;17.912;2022-12-18T00:07:53;23;20;
44350;PMS5003;62766;62.622;17.912;2022-12-18T00:10:21;20;20;
44350;PMS5003;62766;62.622;17.912;2022-12-18T00:12:50;18;17;
44350;PMS5003;62766;62.622;17.912;2022-12-18T00:15:19;24;20;
44350;PMS5003;62766;62.622;17.912;2022-12-18T00:17:47;23;21;
44350;PMS5003;62766;62.622;17.912;2022-12-18T00:20:15;25;23;
44350;PMS5003;62766;62.622;17.912;2022-12-18T00:22:44;28;25;
44350;PMS5003;62766;62.622;17.912;2022-12-18T00:25:12;31;29;
44350;PMS5003;62766;62.622;17.912;2022-12-18T00:27:41;31;25;
44350;PMS5003;62766;62.622;17.912;2022-12-18T00:30:10;29;25;
44350;PMS5003;62766;62.622;17.912;2022-12-18T00:32:39;51;46;
44350;PMS5003;62766;62.622;17.912;2022-12-18T00:35:08;64;47;
44350;PMS5003;62766;62.622;17.912;2022-12-18T00:37:37;35;35;
44350;PMS5003;62766;62.622;17.912;2022-12-18T00:40:06;44;38;
44350;PMS5003;62766;62.622;17.912;2022-12-18T00:42:36;34;30;
44350;PMS5003;62766;62.622;17.912;2022-12-18T00:45:05;28;24;
44350;PMS5003;62766;62.622;17.912;2022-12-18T00:47:35;22;22;
44350;PMS5003;62766;62.622;17.912;2022-12-18T00:50:05;26;24;
44350;PMS5003;62766;62.622;17.912;2022-12-18T00:52:35;28;26;
44350;PMS5003;62766;62.622;17.912;2022-12-18T00:55:04;33;31;
44350;PMS5003;62766;62.622;17.912;2022-12-18T00:57:35;26;26;
44350;PMS5003;62766;62.622;17.912;2022-12-18T01:00:05;25;24;
44350;PMS5003;62766;62.622;17.912;2022-12-18T01:02:37;34;26;
44350;PMS5003;62766;62.622;17.912;2022-12-18T01:05:08;25;22;
44350;PMS5003;62766;62.622;17.912;2022-12-18T01:07:38;31;31;
44350;PMS5003;62766;62.622;17.912;2022-12-18T01:10:07;32;27;
44350;PMS5003;62766;62.622;17.912;2022-12-18T01:12:37;32;27;
44350;PMS5003;62766;62.622;17.912;2022-12-18T01:15:07;32;31;
44350;PMS5003;62766;62.622;17.912;2022-12-18T01:17:37;38;38;
44350;PMS5003;62766;62.622;17.912;2022-12-18T01:20:05;37;33;
44350;PMS5003;62766;62.622;17.912;2022-12-18T01:22:36;39;32;
44350;PMS5003;62766;62.622;17.912;2022-12-18T01:25:06;44;42;
44350;PMS5003;62766;62.622;17.912;2022-12-18T01:27:36;33;31;
44350;PMS5003;62766;62.622;17.912;2022-12-18T01:30:06;38;31;
44350;PMS5003;62766;62.622;17.912;2022-12-18T01:32:36;34;32;
44350;PMS5003;62766;62.622;17.912;2022-12-18T01:35:05;31;28;
44350;PMS5003;62766;62.622;17.912;2022-12-18T01:37:36;38;35;
44350;PMS5003;62766;62.622;17.912;2022-12-18T01:40:06;33;29;
44350;PMS5003;62766;62.622;17.912;2022-12-18T01:42:36;38;36;
44350;PMS5003;62766;62.622;17.912;2022-12-18T01:45:06;35;32;
44350;PMS5003;62766;62.622;17.912;2022-12-18T01:47:51;32;28;
44350;PMS5003;62766;62.622;17.912;2022-12-18T01:50:22;21;18;
44350;PMS5003;62766;62.622;17.912;2022-12-18T01:52:54;22;17;
44350;PMS5003;62766;62.622;17.912;2022-12-18T01:55:28;17;14;
44350;PMS5003;62766;62.622;17.912;2022-12-18T01:57:59;39;35;
44350;PMS5003;62766;62.622;17.912;2022-12-18T02:00:29;25;24;
44350;PMS5003;62766;62.622;17.912;2022-12-18T02:02:58;38;32;
44350;PMS5003;62766;62.622;17.912;2022-12-18T02:05:31;28;25;
44350;PMS5003;62766;62.622;17.912;2022-12-18T02:08:08;33;30;
44350;PMS5003;62766;62.622;17.912;2022-12-18T02:10:42;36;31;
44350;PMS5003;62766;62.622;17.912;2022-12-18T02:13:19;43;37;
44350;PMS5003;62766;62.622;17.912;2022-12-18T02:15:55;36;31;
44350;PMS5003;62766;62.622;17.912;2022-12-18T02:18:37;39;36;
44350;PMS5003;62766;62.622;17.912;2022-12-18T02:21:12;29;27;
44350;PMS5003;62766;62.622;17.912;2022-12-18T02:23:50;32;32;
44350;PMS5003;62766;62.622;17.912;2022-12-18T02:26:26;28;28;
44350;PMS5003;62766;62.622;17.912;2022-12-18T02:29:00;26;22;
44350;PMS5003;62766;62.622;17.912;2022-12-18T02:31:35;28;28;
44350;PMS5003;62766;62.622;17.912;2022-12-18T02:34:08;23;23;
44350;PMS5003;62766;62.622;17.912;2022-12-18T02:36:38;19;17;
44350;PMS5003;62766;62.622;17.912;2022-12-18T02:39:10;21;19;
44350;PMS5003;62766;62.622;17.912;2022-12-18T02:41:41;21;21;
44350;PMS5003;62766;62.622;17.912;2022-12-18T02:44:10;31;28;
44350;PMS5003;62766;62.622;17.912;2022-12-18T02:46:41;27;23;
44350;PMS5003;62766;62.622;17.912;2022-12-18T02:49:18;25;25;
44350;PMS5003;62766;62.622;17.912;2022-12-18T02:51:55;32;29;
44350;PMS5003;62766;62.622;17.912;2022-12-18T02:54:33;33;33;
44350;PMS5003;62766;62.622;17.912;2022-12-18T02:57:11;31;28;
44350;PMS5003;62766;62.622;17.912;2022-12-18T02:59:46;32;30;
44350;PMS5003;62766;62.622;17.912;2022-12-18T03:02:25;23;22;
44350;PMS5003;62766;62.622;17.912;2022-12-18T03:05:03;19;19;
44350;PMS5003;62766;62.622;17.912;2022-12-18T03:07:41;14;14;
44350;PMS5003;62766;62.622;17.912;2022-12-18T03:10:16;14;11;
44350;PMS5003;62766;62.622;17.912;2022-12-18T03:12:47;20;17;
44350;PMS5003;62766;62.622;17.912;2022-12-18T03:15:24;16;14;
44350;PMS5003;62766;62.622;17.912;2022-12-18T03:17:56;13;10;
44350;PMS5003;62766;62.622;17.912;2022-12-18T03:20:29;15;14;
44350;PMS5003;62766;62.622;17.912;2022-12-18T03:23:01;13;10;
44350;PMS5003;62766;62.622;17.912;2022-12-18T03:25:35;16;14;
44350;PMS5003;62766;62.622;17.912;2022-12-18T03:28:09;15;13;
44350;PMS5003;62766;62.622;17.912;2022-12-18T03:30:42;21;21;
44350;PMS5003;62766;62.622;17.912;2022-12-18T03:33:15;32;25;
44350;PMS5003;62766;62.622;17.912;2022-12-18T03:35:46;25;23;
44350;PMS5003;62766;62.622;17.912;2022-12-18T03:38:15;32;31;
44350;PMS5003;62766;62.622;17.912;2022-12-18T03:40:50;28;23;
44350;PMS5003;62766;62.622;17.912;2022-12-18T03:43:28;21;19;
44350;PMS5003;62766;62.622;17.912;2022-12-18T03:46:05;28;24;
44350;PMS5003;62766;62.622;17.912;2022-12-18T03:48:37;20;19;
44350;PMS5003;62766;62.622;17.912;2022-12-18T03:51:13;23;23;
44350;PMS5003;62766;62.622;17.912;2022-12-18T03:53:46;20;16;
44350;PMS5003;62766;62.622;17.912;2022-12-18T03:56:21;22;22;
44350;PMS5003;62766;62.622;17.912;2022-12-18T03:58:52;33;26;
44350;PMS5003;62766;62.622;17.912;2022-12-18T04:01:23;27;26;
44350;PMS5003;62766;62.622;17.912;2022-12-18T04:03:57;34;28;
44350;PMS5003;62766;62.622;17.912;2022-12-18T04:06:29;29;23;
44350;PMS5003;62766;62.622;17.912;2022-12-18T04:08:59;28;23;
44350;PMS5003;62766;62.622;17.912;2022-12-18T04:11:28;26;26;
44350;PMS5003;62766;62.622;17.912;2022-12-18T04:13:57;25;25;
44350;PMS5003;62766;62.622;17.912;2022-12-18T04:16:27;33;29;
44350;PMS5003;62766;62.622;17.912;2022-12-18T04:18:55;26;20;
44350;PMS5003;62766;62.622;17.912;2022-12-18T04:21:25;20;19;
44350;PMS5003;62766;62.622;17.912;2022-12-18T04:23:54;21;19;
44350;PMS5003;62766;62.622;17.912;2022-12-18T04:26:22;17;16;
44350;PMS5003;62766;62.622;17.912;2022-12-18T04:28:50;17;15;
44350;PMS5003;62766;62.622;17.912;2022-12-18T04:31:18;20;18;
44350;PMS5003;62766;62.622;17.912;2022-12-18T04:33:47;21;18;
44350;PMS5003;62766;62.622;17.912;2022-12-18T04:36:15;25;20;
44350;PMS5003;62766;62.622;17.912;2022-12-18T04:38:43;25;25;
44350;PMS5003;62766;62.622;17.912;2022-12-18T04:41:12;27;23;
44350;PMS5003;62766;62.622;17.912;2022-12-18T04:43:41;25;23;
44350;PMS5003;62766;62.622;17.912;2022-12-18T04:46:11;20;16;
44350;PMS5003;62766;62.622;17.912;2022-12-18T04:48:40;28;24;
44350;PMS5003;62766;62.622;17.912;2022-12-18T04:51:08;21;21;
44350;PMS5003;62766;62.622;17.912;2022-12-18T04:53:37;25;19;
44350;PMS5003;62766;62.622;17.912;2022-12-18T04:56:06;29;27;
44350;PMS5003;62766;62.622;17.912;2022-12-18T04:58:37;28;27;
44350;PMS5003;62766;62.622;17.912;2022-12-18T05:03:36;27;23;
44350;PMS5003;62766;62.622;17.912;2022-12-18T05:06:05;25;24;
44350;PMS5003;62766;62.622;17.912;2022-12-18T05:08:34;26;23;
44350;PMS5003;62766;62.622;17.912;2022-12-18T05:11:03;25;23;
44350;PMS5003;62766;62.622;17.912;2022-12-18T05:13:35;28;28;
44350;PMS5003;62766;62.622;17.912;2022-12-18T05:16:04;26;24;
44350;PMS5003;62766;62.622;17.912;2022-12-18T05:18:35;27;25;
44350;PMS5003;62766;62.622;17.912;2022-12-18T05:21:05;19;18;
44350;PMS5003;62766;62.622;17.912;2022-12-18T05:23:34;21;21;
44350;PMS5003;62766;62.622;17.912;2022-12-18T05:26:04;26;25;
44350;PMS5003;62766;62.622;17.912;2022-12-18T05:28:34;22;19;
44350;PMS5003;62766;62.622;17.912;2022-12-18T05:31:03;19;19;
44350;PMS5003;62766;62.622;17.912;2022-12-18T05:33:32;23;22;
44350;PMS5003;62766;62.622;17.912;2022-12-18T05:36:03;25;20;
44350;PMS5003;62766;62.622;17.912;2022-12-18T05:38:34;21;19;
44350;PMS5003;62766;62.622;17.912;2022-12-18T05:41:04;21;18;
44350;PMS5003;62766;62.622;17.912;2022-12-18T05:43:35;21;19;
44350;PMS5003;62766;62.622;17.912;2022-12-18T05:46:05;18;18;
44350;PMS5003;62766;62.622;17.912;2022-12-18T05:48:34;21;19;
44350;PMS5003;62766;62.622;17.912;2022-12-18T05:51:04;20;18;
44350;PMS5003;62766;62.622;17.912;2022-12-18T05:53:36;25;22;
44350;PMS5003;62766;62.622;17.912;2022-12-18T05:56:07;25;22;
44350;PMS5003;62766;62.622;17.912;2022-12-18T05:58:38;26;26;
44350;PMS5003;62766;62.622;17.912;2022-12-18T06:01:08;26;26;
44350;PMS5003;62766;62.622;17.912;2022-12-18T06:03:38;20;20;
44350;PMS5003;62766;62.622;17.912;2022-12-18T06:06:12;26;26;
44350;PMS5003;62766;62.622;17.912;2022-12-18T06:08:42;21;19;
44350;PMS5003;62766;62.622;17.912;2022-12-18T06:11:11;21;18;
44350;PMS5003;62766;62.622;17.912;2022-12-18T06:13:41;26;25;
44350;PMS5003;62766;62.622;17.912;2022-12-18T06:16:09;19;19;
44350;PMS5003;62766;62.622;17.912;2022-12-18T06:18:38;29;26;
44350;PMS5003;62766;62.622;17.912;2022-12-18T06:21:07;19;18;
44350;PMS5003;62766;62.622;17.912;2022-12-18T06:23:35;25;23;
44350;PMS5003;62766;62.622;17.912;2022-12-18T06:26:05;27;25;
44350;PMS5003;62766;62.622;17.912;2022-12-18T06:28:37;18;15;
44350;PMS5003;62766;62.622;17.912;2022-12-18T06:31:07;15;13;
44350;PMS5003;62766;62.622;17.912;2022-12-18T06:33:36;12;12;
44350;PMS5003;62766;62.622;17.912;2022-12-18T06:36:08;12;12;
44350;PMS5003;62766;62.622;17.912;2022-12-18T06:38:40;18;14;
44350;PMS5003;62766;62.622;17.912;2022-12-18T06:41:10;14;13;
44350;PMS5003;62766;62.622;17.912;2022-12-18T06:43:40;12;11;
44350;PMS5003;62766;62.622;17.912;2022-12-18T06:46:09;13;13;
44350;PMS5003;62766;62.622;17.912;2022-12-18T06:48:38;12;11;
44350;PMS5003;62766;62.622;17.912;2022-12-18T06:51:06;10;10;
44350;PMS5003;62766;62.622;17.912;2022-12-18T06:53:35;12;12;
44350;PMS5003;62766;62.622;17.912;2022-12-18T06:56:04;18;12;
44350;PMS5003;62766;62.622;17.912;2022-12-18T06:58:35;11;11;
44350;PMS5003;62766;62.622;17.912;2022-12-18T07:01:05;13;13;
44350;PMS5003;62766;62.622;17.912;2022-12-18T07:03:35;12;10;
44350;PMS5003;62766;62.622;17.912;2022-12-18T07:06:04;10;10;
44350;PMS5003;62766;62.622;17.912;2022-12-18T07:08:33;11;10;
44350;PMS5003;62766;62.622;17.912;2022-12-18T07:11:02;12;11;
44350;PMS5003;62766;62.622;17.912;2022-12-18T07:13:32;10;10;
44350;PMS5003;62766;62.622;17.912;2022-12-18T07:16:04;10;10;
44350;PMS5003;62766;62.622;17.912;2022-12-18T07:18:34;12;10;
44350;PMS5003;62766;62.622;17.912;2022-12-18T07:21:03;11;11;
44350;PMS5003;62766;62.622;17.912;2022-12-18T07:23:32;11;10;
44350;PMS5003;62766;62.622;17.912;2022-12-18T07:26:02;13;13;
44350;PMS5003;62766;62.622;17.912;2022-12-18T07:28:33;10;7;
44350;PMS5003;62766;62.622;17.912;2022-12-18T07:31:02;12;10;
44350;PMS5003;62766;62.622;17.912;2022-12-18T07:33:31;15;13;
44350;PMS5003;62766;62.622;17.912;2022-12-18T07:36:00;12;12;
44350;PMS5003;62766;62.622;17.912;2022-12-18T07:38:29;10;6;
44350;PMS5003;62766;62.622;17.912;2022-12-18T07:40:59;10;10;
44350;PMS5003;62766;62.622;17.912;2022-12-18T07:43:27;11;10;
44350;PMS5003;62766;62.622;17.912;2022-12-18T07:45:56;8;7;
44350;PMS5003;62766;62.622;17.912;2022-12-18T07:48:24;12;8;
44350;PMS5003;62766;62.622;17.912;2022-12-18T07:50:53;10;8;
44350;PMS5003;62766;62.622;17.912;2022-12-18T07:53:21;10;10;
44350;PMS5003;62766;62.622;17.912;2022-12-18T07:55:54;7;6;
44350;PMS5003;62766;62.622;17.912;2022-12-18T07:58:23;11;11;
44350;PMS5003;62766;62.622;17.912;2022-12-18T08:00:51;8;7;
44350;PMS5003;62766;62.622;17.912;2022-12-18T08:03:21;8;8;
44350;PMS5003;62766;62.622;17.912;2022-12-18T08:05:50;6;6;
44350;PMS5003;62766;62.622;17.912;2022-12-18T08:08:18;12;8;
44350;PMS5003;62766;62.622;17.912;2022-12-18T08:10:47;8;7;
44350;PMS5003;62766;62.622;17.912;2022-12-18T08:13:15;12;11;
44350;PMS5003;62766;62.622;17.912;2022-12-18T08:15:44;6;6;
44350;PMS5003;62766;62.622;17.912;2022-12-18T08:18:13;9;9;
44350;PMS5003;62766;62.622;17.912;2022-12-18T08:20:41;11;7;
44350;PMS5003;62766;62.622;17.912;2022-12-18T08:23:10;11;11;
44350;PMS5003;62766;62.622;17.912;2022-12-18T08:25:39;9;7;
44350;PMS5003;62766;62.622;17.912;2022-12-18T08:28:07;12;7;
44350;PMS5003;62766;62.622;17.912;2022-12-18T08:30:35;5;5;
44350;PMS5003;62766;62.622;17.912;2022-12-18T08:33:04;12;7;
44350;PMS5003;62766;62.622;17.912;2022-12-18T08:35:34;7;7;
44350;PMS5003;62766;62.622;17.912;2022-12-18T08:38:04;12;12;
44350;PMS5003;62766;62.622;17.912;2022-12-18T08:40:32;9;7;
44350;PMS5003;62766;62.622;17.912;2022-12-18T08:43:01;8;8;
44350;PMS5003;62766;62.622;17.912;2022-12-18T08:45:30;9;8;
44350;PMS5003;62766;62.622;17.912;2022-12-18T08:47:58;9;9;
44350;PMS5003;62766;62.622;17.912;2022-12-18T08:50:27;10;7;
44350;PMS5003;62766;62.622;17.912;2022-12-18T08:52:55;9;6;
44350;PMS5003;62766;62.622;17.912;2022-12-18T08:55:24;7;7;
44350;PMS5003;62766;62.622;17.912;2022-12-18T08:57:52;6;6;
44350;PMS5003;62766;62.622;17.912;2022-12-18T09:00:22;9;9;
44350;PMS5003;62766;62.622;17.912;2022-12-18T09:02:51;8;8;
44350;PMS5003;62766;62.622;17.912;2022-12-18T09:05:21;8;7;
44350;PMS5003;62766;62.622;17.912;2022-12-18T09:07:50;7;7;
44350;PMS5003;62766;62.622;17.912;2022-12-18T09:10:20;6;6;
44350;PMS5003;62766;62.622;17.912;2022-12-18T09:12:49;9;9;
44350;PMS5003;62766;62.622;17.912;2022-12-18T09:15:17;9;9;
44350;PMS5003;62766;62.622;17.912;2022-12-18T09:17:46;7;7;
44350;PMS5003;62766;62.622;17.912;2022-12-18T09:20:15;7;7;
44350;PMS5003;62766;62.622;17.912;2022-12-18T09:22:44;12;9;
44350;PMS5003;62766;62.622;17.912;2022-12-18T09:25:13;6;6;
44350;PMS5003;62766;62.622;17.912;2022-12-18T09:27:41;8;8;
44350;PMS5003;62766;62.622;17.912;2022-12-18T09:30:10;8;8;
44350;PMS5003;62766;62.622;17.912;2022-12-18T09:32:38;7;5;
44350;PMS5003;62766;62.622;17.912;2022-12-18T09:35:07;8;8;
44350;PMS5003;62766;62.622;17.912;2022-12-18T09:37:36;8;7;
44350;PMS5003;62766;62.622;17.912;2022-12-18T09:40:05;9;7;
44350;PMS5003;62766;62.622;17.912;2022-12-18T09:42:35;7;6;
44350;PMS5003;62766;62.622;17.912;2022-12-18T09:45:04;7;6;
44350;PMS5003;62766;62.622;17.912;2022-12-18T09:47:34;11;11;
44350;PMS5003;62766;62.622;17.912;2022-12-18T09:50:27;7;6;
44350;PMS5003;62766;62.622;17.912;2022-12-18T09:53:02;7;7;
44350;PMS5003;62766;62.622;17.912;2022-12-18T09:55:35;8;8;
44350;PMS5003;62766;62.622;17.912;2022-12-18T09:58:06;7;6;
44350;PMS5003;62766;62.622;17.912;2022-12-18T10:00:40;9;7;
44350;PMS5003;62766;62.622;17.912;2022-12-18T10:03:10;8;8;
44350;PMS5003;62766;62.622;17.912;2022-12-18T10:05:41;10;7;
44350;PMS5003;62766;62.622;17.912;2022-12-18T10:08:18;8;7;
44350;PMS5003;62766;62.622;17.912;2022-12-18T10:10:53;10;9;
44350;PMS5003;62766;62.622;17.912;2022-12-18T10:13:28;10;8;
44350;PMS5003;62766;62.622;17.912;2022-12-18T10:16:06;11;8;
44350;PMS5003;62766;62.622;17.912;2022-12-18T10:18:47;7;7;
44350;PMS5003;62766;62.622;17.912;2022-12-18T10:21:30;5;5;
44350;PMS5003;62766;62.622;17.912;2022-12-18T10:24:09;5;5;
44350;PMS5003;62766;62.622;17.912;2022-12-18T10:26:45;9;6;
44350;PMS5003;62766;62.622;17.912;2022-12-18T10:29:15;9;5;
44350;PMS5003;62766;62.622;17.912;2022-12-18T10:31:44;8;8;
44350;PMS5003;62766;62.622;17.912;2022-12-18T10:34:13;8;6;
44350;PMS5003;62766;62.622;17.912;2022-12-18T10:36:42;7;6;
44350;PMS5003;62766;62.622;17.912;2022-12-18T10:39:16;8;8;
44350;PMS5003;62766;62.622;17.912;2022-12-18T10:41:45;7;7;
44350;PMS5003;62766;62.622;17.912;2022-12-18T10:44:16;8;8;
44350;PMS5003;62766;62.622;17.912;2022-12-18T10:46:48;8;8;
44350;PMS5003;62766;62.622;17.912;2022-12-18T10:49:19;8;5;
44350;PMS5003;62766;62.622;17.912;2022-12-18T10:51:51;6;6;
44350;PMS5003;62766;62.622;17.912;2022-12-18T10:54:34;7;6;
44350;PMS5003;62766;62.622;17.912;2022-12-18T10:57:14;6;6;
44350;PMS5003;62766;62.622;17.912;2022-12-18T10:59:49;7;6;
44350;PMS5003;62766;62.622;17.912;2022-12-18T11:03:29;6;6;
44350;PMS5003;62766;62.622;17.912;2022-12-18T11:06:01;13;12;
44350;PMS5003;62766;62.622;17.912;2022-12-18T11:08:31;5;5;
44350;PMS5003;62766;62.622;17.912;2022-12-18T11:10:59;6;6;
44350;PMS5003;62766;62.622;17.912;2022-12-18T11:13:29;6;5;
44350;PMS5003;62766;62.622;17.912;2022-12-18T11:15:59;6;6;
44350;PMS5003;62766;62.622;17.912;2022-12-18T11:18:28;3;2;
44350;PMS5003;62766;62.622;17.912;2022-12-18T11:21:04;5;5;
44350;PMS5003;62766;62.622;17.912;2022-12-18T11:23:36;6;4;
44350;PMS5003;62766;62.622;17.912;2022-12-18T11:26:12;5;5;
44350;PMS5003;62766;62.622;17.912;2022-12-18T11:28:42;5;5;
44350;PMS5003;62766;62.622;17.912;2022-12-18T11:31:22;4;4;
44350;PMS5003;62766;62.622;17.912;2022-12-18T11:33:54;6;6;
44350;PMS5003;62766;62.622;17.912;2022-12-18T11:36:30;8;7;
44350;PMS5003;62766;62.622;17.912;2022-12-18T11:39:02;4;4;
44350;PMS5003;62766;62.622;17.912;2022-12-18T11:41:41;5;5;
44350;PMS5003;62766;62.622;17.912;2022-12-18T11:44:22;6;6;
44350;PMS5003;62766;62.622;17.912;2022-12-18T11:46:59;4;4;
44350;PMS5003;62766;62.622;17.912;2022-12-18T11:49:32;3;3;
44350;PMS5003;62766;62.622;17.912;2022-12-18T11:52:03;4;4;
44350;PMS5003;62766;62.622;17.912;2022-12-18T11:54:38;4;4;
44350;PMS5003;62766;62.622;17.912;2022-12-18T11:57:13;5;5;
44350;PMS5003;62766;62.622;17.912;2022-12-18T11:59:55;3;3;
44350;PMS5003;62766;62.622;17.912;2022-12-18T12:02:36;7;6;
44350;PMS5003;62766;62.622;17.912;2022-12-18T12:05:18;3;3;
44350;PMS5003;62766;62.622;17.912;2022-12-18T12:07:57;4;4;
44350;PMS5003;62766;62.622;17.912;2022-12-18T12:10:33;7;6;
44350;PMS5003;62766;62.622;17.912;2022-12-18T12:13:14;4;4;
44350;PMS5003;62766;62.622;17.912;2022-12-18T12:15:55;3;3;
44350;PMS5003;62766;62.622;17.912;2022-12-18T12:18:34;7;5;
44350;PMS5003;62766;62.622;17.912;2022-12-18T12:21:16;3;3;
44350;PMS5003;62766;62.622;17.912;2022-12-18T12:23:51;2;2;
44350;PMS5003;62766;62.622;17.912;2022-12-18T12:26:29;3;3;
44350;PMS5003;62766;62.622;17.912;2022-12-18T12:29:08;4;4;
44350;PMS5003;62766;62.622;17.912;2022-12-18T12:31:56;3;3;
44350;PMS5003;62766;62.622;17.912;2022-12-18T12:34:34;2;2;
44350;PMS5003;62766;62.622;17.912;2022-12-18T12:37:23;5;5;
44350;PMS5003;62766;62.622;17.912;2022-12-18T12:39:58;8;7;
44350;PMS5003;62766;62.622;17.912;2022-12-18T12:42:30;5;5;
44350;PMS5003;62766;62.622;17.912;2022-12-18T12:45:05;5;4;
44350;PMS5003;62766;62.622;17.912;2022-12-18T12:47:42;3;3;
44350;PMS5003;62766;62.622;17.912;2022-12-18T12:50:16;3;3;
44350;PMS5003;62766;62.622;17.912;2022-12-18T12:52:47;5;5;
44350;PMS5003;62766;62.622;17.912;2022-12-18T12:55:21;10;9;
44350;PMS5003;62766;62.622;17.912;2022-12-18T12:57:54;8;8;
44350;PMS5003;62766;62.622;17.912;2022-12-18T13:00:29;9;8;
44350;PMS5003;62766;62.622;17.912;2022-12-18T13:03:06;7;7;
44350;PMS5003;62766;62.622;17.912;2022-12-18T13:05:43;18;15;
44350;PMS5003;62766;62.622;17.912;2022-12-18T13:08:23;17;16;
44350;PMS5003;62766;62.622;17.912;2022-12-18T13:10:54;5;5;
44350;PMS5003;62766;62.622;17.912;2022-12-18T13:13:24;34;32;
44350;PMS5003;62766;62.622;17.912;2022-12-18T13:16:03;222;205;
44350;PMS5003;62766;62.622;17.912;2022-12-18T13:18:34;115;114;
44350;PMS5003;62766;62.622;17.912;2022-12-18T13:21:04;60;57;
44350;PMS5003;62766;62.622;17.912;2022-12-18T13:23:43;32;32;
44350;PMS5003;62766;62.622;17.912;2022-12-18T13:26:28;11;10;
44350;PMS5003;62766;62.622;17.912;2022-12-18T13:29:03;8;6;
44350;PMS5003;62766;62.622;17.912;2022-12-18T13:32:15;4;4;
44350;PMS5003;62766;62.622;17.912;2022-12-18T13:34:49;5;5;
44350;PMS5003;62766;62.622;17.912;2022-12-18T13:38:16;4;4;
44350;PMS5003;62766;62.622;17.912;2022-12-18T13:40:53;8;8;
44350;PMS5003;62766;62.622;17.912;2022-12-18T13:43:27;5;5;
44350;PMS5003;62766;62.622;17.912;2022-12-18T13:45:59;3;3;
44350;PMS5003;62766;62.622;17.912;2022-12-18T13:48:34;3;3;
44350;PMS5003;62766;62.622;17.912;2022-12-18T13:51:07;4;4;
44350;PMS5003;62766;62.622;17.912;2022-12-18T13:53:42;5;5;
44350;PMS5003;62766;62.622;17.912;2022-12-18T13:56:15;3;3;
44350;PMS5003;62766;62.622;17.912;2022-12-18T13:58:44;3;3;
44350;PMS5003;62766;62.622;17.912;2022-12-18T14:01:21;3;2;
44350;PMS5003;62766;62.622;17.912;2022-12-18T14:03:50;3;3;
44350;PMS5003;62766;62.622;17.912;2022-12-18T14:06:18;3;3;
44350;PMS5003;62766;62.622;17.912;2022-12-18T14:08:49;3;2;
44350;PMS5003;62766;62.622;17.912;2022-12-18T14:11:18;1;1;
44350;PMS5003;62766;62.622;17.912;2022-12-18T14:13:49;1;1;
44350;PMS5003;62766;62.622;17.912;2022-12-18T14:16:17;1;1;
44350;PMS5003;62766;62.622;17.912;2022-12-18T14:18:48;1;1;
44350;PMS5003;62766;62.622;17.912;2022-12-18T14:21:21;1;1;
44350;PMS5003;62766;62.622;17.912;2022-12-18T14:24:02;1;1;
44350;PMS5003;62766;62.622;17.912;2022-12-18T14:26:34;3;3;
44350;PMS5003;62766;62.622;17.912;2022-12-18T14:29:17;6;2;
44350;PMS5003;62766;62.622;17.912;2022-12-18T14:32:03;1;1;
44350;PMS5003;62766;62.622;17.912;2022-12-18T14:34:33;3;1;
44350;PMS5003;62766;62.622;17.912;2022-12-18T14:37:01;1;1;
44350;PMS5003;62766;62.622;17.912;2022-12-18T14:39:30;2;2;
44350;PMS5003;62766;62.622;17.912;2022-12-18T14:41:58;2;1;
44350;PMS5003;62766;62.622;17.912;2022-12-18T14:44:27;2;2;
44350;PMS5003;62766;62.622;17.912;2022-12-18T14:46:55;0;0;
44350;PMS5003;62766;62.622;17.912;2022-12-18T14:49:24;0;0;
44350;PMS5003;62766;62.622;17.912;2022-12-18T14:51:57;1;1;
44350;PMS5003;62766;62.622;17.912;2022-12-18T14:54:27;0;0;
44350;PMS5003;62766;62.622;17.912;2022-12-18T14:56:59;1;1;
44350;PMS5003;62766;62.622;17.912;2022-12-18T14:59:30;1;1;
44350;PMS5003;62766;62.622;17.912;2022-12-18T15:02:01;1;1;
44350;PMS5003;62766;62.622;17.912;2022-12-18T15:04:39;1;1;
44350;PMS5003;62766;62.622;17.912;2022-12-18T15:07:10;1;1;
44350;PMS5003;62766;62.622;17.912;2022-12-18T15:09:42;1;1;
44350;PMS5003;62766;62.622;17.912;2022-12-18T15:12:24;1;1;
44350;PMS5003;62766;62.622;17.912;2022-12-18T15:15:00;0;0;
44350;PMS5003;62766;62.622;17.912;2022-12-18T15:17:28;0;0;
44350;PMS5003;62766;62.622;17.912;2022-12-18T15:19:58;6;6;
44350;PMS5003;62766;62.622;17.912;2022-12-18T15:22:30;5;5;
44350;PMS5003;62766;62.622;17.912;2022-12-18T15:25:03;14;12;
44350;PMS5003;62766;62.622;17.912;2022-12-18T15:27:48;1;1;
44350;PMS5003;62766;62.622;17.912;2022-12-18T15:30:18;5;5;
44350;PMS5003;62766;62.622;17.912;2022-12-18T15:32:49;6;4;
44350;PMS5003;62766;62.622;17.912;2022-12-18T15:35:20;1;1;
44350;PMS5003;62766;62.622;17.912;2022-12-18T15:37:50;2;2;
44350;PMS5003;62766;62.622;17.912;2022-12-18T15:40:20;3;3;
44350;PMS5003;62766;62.622;17.912;2022-12-18T15:42:52;4;3;
44350;PMS5003;62766;62.622;17.912;2022-12-18T15:45:22;15;12;
44350;PMS5003;62766;62.622;17.912;2022-12-18T15:47:51;12;12;
44350;PMS5003;62766;62.622;17.912;2022-12-18T15:50:21;8;7;
44350;PMS5003;62766;62.622;17.912;2022-12-18T15:52:50;3;3;
44350;PMS5003;62766;62.622;17.912;2022-12-18T15:55:20;9;9;
44350;PMS5003;62766;62.622;17.912;2022-12-18T15:57:50;5;4;
44350;PMS5003;62766;62.622;17.912;2022-12-18T16:00:18;1;1;
44350;PMS5003;62766;62.622;17.912;2022-12-18T16:02:46;2;2;
44350;PMS5003;62766;62.622;17.912;2022-12-18T16:05:16;4;4;
44350;PMS5003;62766;62.622;17.912;2022-12-18T16:07:46;0;0;
44350;PMS5003;62766;62.622;17.912;2022-12-18T16:10:14;6;6;
44350;PMS5003;62766;62.622;17.912;2022-12-18T16:12:42;0;0;
44350;PMS5003;62766;62.622;17.912;2022-12-18T16:15:12;4;2;
44350;PMS5003;62766;62.622;17.912;2022-12-18T16:17:42;17;16;
44350;PMS5003;62766;62.622;17.912;2022-12-18T16:20:12;37;32;
44350;PMS5003;62766;62.622;17.912;2022-12-18T16:22:42;14;13;
44350;PMS5003;62766;62.622;17.912;2022-12-18T16:25:16;2;1;
44350;PMS5003;62766;62.622;17.912;2022-12-18T16:27:47;19;18;
44350;PMS5003;62766;62.622;17.912;2022-12-18T16:30:23;6;4;
44350;PMS5003;62766;62.622;17.912;2022-12-18T16:32:53;11;11;
44350;PMS5003;62766;62.622;17.912;2022-12-18T16:35:21;42;41;
44350;PMS5003;62766;62.622;17.912;2022-12-18T16:37:51;3;3;
44350;PMS5003;62766;62.622;17.912;2022-12-18T16:40:19;32;25;
44350;PMS5003;62766;62.622;17.912;2022-12-18T16:42:49;5;2;
44350;PMS5003;62766;62.622;17.912;2022-12-18T16:45:17;2;2;
44350;PMS5003;62766;62.622;17.912;2022-12-18T16:47:46;3;3;
44350;PMS5003;62766;62.622;17.912;2022-12-18T16:50:14;2;2;